createdAt,value
2018-07-08T00:02:10.597Z,15.18
2018-07-08T00:04:42.613Z,15.23
2018-07-08T00:07:14.720Z,15.14
2018-07-08T00:09:45.884Z,14.96
2018-07-08T00:12:16.334Z,14.74
2018-07-08T00:14:47.557Z,14.60
2018-07-08T00:17:18.074Z,14.65
2018-07-08T00:19:48.911Z,14.78
2018-07-08T00:22:20.220Z,14.60
2018-07-08T00:24:51.570Z,14.64
2018-07-08T00:27:22.063Z,14.69
2018-07-08T00:29:52.319Z,14.72
2018-07-08T00:32:23.446Z,14.83
2018-07-08T00:34:53.800Z,14.83
2018-07-08T00:37:25.390Z,14.84
2018-07-08T00:39:56.503Z,14.92
2018-07-08T00:42:27.625Z,14.98
2018-07-08T00:44:58.980Z,15.02
2018-07-08T00:47:30.333Z,15.28
2018-07-08T00:50:00.950Z,15.41
2018-07-08T00:52:33.322Z,15.34
2018-07-08T00:55:04.835Z,15.27
2018-07-08T00:57:35.153Z,15.41
2018-07-08T01:00:05.623Z,15.30
2018-07-08T01:02:35.845Z,15.14
2018-07-08T01:05:07.982Z,14.95
2018-07-08T01:07:39.768Z,14.89
2018-07-08T01:10:11.985Z,14.76
2018-07-08T01:12:48.867Z,14.81
2018-07-08T01:15:21.290Z,14.99
2018-07-08T01:17:52.025Z,15.24
2018-07-08T01:20:23.481Z,15.50
2018-07-08T01:22:55.248Z,15.41
2018-07-08T01:25:37.353Z,15.39
2018-07-08T01:28:09.050Z,15.11
2018-07-08T01:30:40.402Z,14.96
2018-07-08T01:33:10.913Z,14.94
2018-07-08T01:35:42.715Z,14.95
2018-07-08T01:38:14.614Z,14.86
2018-07-08T01:40:46.799Z,14.79
2018-07-08T01:43:17.237Z,14.91
2018-07-08T01:45:49.275Z,14.73
2018-07-08T01:48:19.611Z,14.51
2018-07-08T01:50:51.522Z,14.51
2018-07-08T01:53:21.959Z,14.39
2018-07-08T01:55:52.313Z,14.36
2018-07-08T01:58:23.463Z,14.37
2018-07-08T02:00:54.904Z,14.48
2018-07-08T02:03:25.521Z,14.45
2018-07-08T02:05:56.316Z,14.38
2018-07-08T02:08:27.445Z,14.35
2018-07-08T02:10:57.927Z,14.40
2018-07-08T02:13:30.216Z,14.34
2018-07-08T02:16:00.606Z,14.19
2018-07-08T02:18:31.951Z,13.90
2018-07-08T02:21:03.314Z,14.02
2018-07-08T02:23:35.806Z,14.01
2018-07-08T02:26:07.093Z,13.84
2018-07-08T02:28:39.635Z,13.79
2018-07-08T02:31:11.675Z,13.84
2018-07-08T02:33:43.240Z,13.71
2018-07-08T02:36:15.621Z,13.62
2018-07-08T02:38:49.067Z,13.52
2018-07-08T02:41:23.805Z,13.45
2018-07-08T02:43:55.236Z,13.43
2018-07-08T02:46:28.799Z,13.31
2018-07-08T02:49:00.190Z,13.24
2018-07-08T02:51:32.321Z,13.15
2018-07-08T02:54:04.355Z,13.09
2018-07-08T02:56:38.456Z,13.07
2018-07-08T02:59:10.742Z,13.25
2018-07-08T03:01:43.728Z,13.25
2018-07-08T03:04:15.151Z,13.18
2018-07-08T03:06:47.840Z,13.13
2018-07-08T03:09:19.750Z,13.09
2018-07-08T03:11:53.175Z,13.20
2018-07-08T03:14:25.761Z,13.11
2018-07-08T03:16:58.100Z,13.13
2018-07-08T03:19:30.017Z,13.13
2018-07-08T03:22:01.662Z,13.24
2018-07-08T03:24:34.603Z,13.18
2018-07-08T03:27:04.867Z,13.12
2018-07-08T03:29:35.434Z,13.06
2018-07-08T03:32:06.020Z,12.94
2018-07-08T03:34:40.359Z,13.07
2018-07-08T03:37:11.223Z,13.06
2018-07-08T03:39:42.005Z,13.07
2018-07-08T03:42:12.408Z,13.35
2018-07-08T03:44:43.763Z,13.45
2018-07-08T03:47:15.747Z,13.42
2018-07-08T03:49:46.966Z,13.36
2018-07-08T03:52:19.146Z,13.38
2018-07-08T03:54:49.955Z,13.41
2018-07-08T03:57:21.157Z,13.47
2018-07-08T03:59:52.136Z,13.46
2018-07-08T04:02:22.641Z,13.43
2018-07-08T04:04:53.635Z,13.44
2018-07-08T04:07:24.326Z,13.54
2018-07-08T04:09:54.915Z,13.69
2018-07-08T04:12:26.153Z,13.75
2018-07-08T04:14:56.495Z,13.77
2018-07-08T04:17:27.206Z,13.85
2018-07-08T04:19:57.612Z,13.98
2018-07-08T04:22:28.679Z,14.01
2018-07-08T04:24:59.782Z,14.07
2018-07-08T04:27:31.604Z,14.23
2018-07-08T04:30:02.849Z,14.46
2018-07-08T04:32:33.940Z,14.59
2018-07-08T04:35:09.631Z,14.73
2018-07-08T04:37:41.362Z,14.90
2018-07-08T04:40:13.665Z,14.94
2018-07-08T04:42:44.367Z,14.96
2018-07-08T04:45:16.427Z,14.96
2018-07-08T04:47:47.667Z,15.04
2018-07-08T04:50:19.729Z,15.10
2018-07-08T04:52:50.378Z,15.14
2018-07-08T04:55:20.708Z,15.27
2018-07-08T04:57:51.078Z,15.46
2018-07-08T05:00:22.156Z,15.65
2018-07-08T05:02:53.391Z,15.80
2018-07-08T05:05:24.043Z,15.92
2018-07-08T05:07:55.181Z,16.08
2018-07-08T05:10:25.707Z,16.10
2018-07-08T05:12:56.460Z,16.19
2018-07-08T05:15:27.398Z,16.16
2018-07-08T05:17:57.937Z,16.15
2018-07-08T05:20:29.776Z,16.13
2018-07-08T05:23:00.930Z,16.19
2018-07-08T05:25:32.109Z,16.24
2018-07-08T05:28:02.541Z,16.38
2018-07-08T05:30:33.071Z,16.59
2018-07-08T05:33:03.718Z,16.75
2018-07-08T05:35:35.003Z,16.86
2018-07-08T05:38:06.944Z,16.97
2018-07-08T05:40:37.834Z,16.98
2018-07-08T05:43:09.765Z,16.91
2018-07-08T05:45:43.414Z,16.97
2018-07-08T05:48:15.908Z,17.00
2018-07-08T05:50:46.806Z,16.99
2018-07-08T05:53:18.379Z,17.04
2018-07-08T05:55:50.324Z,16.97
2018-07-08T05:58:21.580Z,17.25
2018-07-08T06:00:51.921Z,17.55
2018-07-08T06:03:22.333Z,17.99
2018-07-08T06:05:53.225Z,18.01
2018-07-08T06:08:24.494Z,18.15
2018-07-08T06:10:58.105Z,18.18
2018-07-08T06:13:29.610Z,18.33
2018-07-08T06:16:01.624Z,18.49
2018-07-08T06:18:32.863Z,18.34
2018-07-08T06:21:04.296Z,18.32
2018-07-08T06:23:36.658Z,18.59
2018-07-08T06:26:10.089Z,18.93
2018-07-08T06:28:41.756Z,18.71
2018-07-08T06:31:13.321Z,18.52
2018-07-08T06:33:44.512Z,18.51
2018-07-08T06:36:15.889Z,18.62
2018-07-08T06:38:47.541Z,18.75
2018-07-08T06:41:24.445Z,18.96
2018-07-08T06:43:57.364Z,18.99
2018-07-08T06:46:28.282Z,19.21
2018-07-08T06:48:58.886Z,19.27
2018-07-08T06:51:29.725Z,19.15
2018-07-08T06:54:01.120Z,19.01
2018-07-08T06:56:31.876Z,19.15
2018-07-08T06:59:02.895Z,19.41
2018-07-08T07:01:33.313Z,19.57
2018-07-08T07:04:04.585Z,19.42
2018-07-08T07:06:35.537Z,19.63
2018-07-08T07:09:11.715Z,19.88
2018-07-08T07:11:42.621Z,20.09
2018-07-08T07:14:13.204Z,20.55
2018-07-08T07:16:43.555Z,20.99
2018-07-08T07:19:13.893Z,21.28
2018-07-08T07:21:44.423Z,21.19
2018-07-08T07:24:14.760Z,20.94
2018-07-08T07:26:46.639Z,21.42
2018-07-08T07:29:18.182Z,21.77
2018-07-08T07:31:49.253Z,21.99
2018-07-08T07:34:19.615Z,21.80
2018-07-08T07:36:51.333Z,21.24
2018-07-08T07:39:21.886Z,21.81
2018-07-08T07:41:52.451Z,22.57
2018-07-08T07:44:23.416Z,23.47
2018-07-08T07:46:54.208Z,23.48
2018-07-08T07:49:24.694Z,23.69
2018-07-08T07:51:57.533Z,23.64
2018-07-08T07:54:27.822Z,23.44
2018-07-08T07:56:58.420Z,23.27
2018-07-08T07:59:29.159Z,23.54
2018-07-08T08:02:00.436Z,23.92
2018-07-08T08:04:31.809Z,23.71
2018-07-08T08:07:03.015Z,24.05
2018-07-08T08:09:33.378Z,24.16
2018-07-08T08:12:05.207Z,24.27
2018-07-08T08:14:35.562Z,24.51
2018-07-08T08:17:06.741Z,24.69
2018-07-08T08:19:38.249Z,25.42
2018-07-08T08:22:10.118Z,25.05
2018-07-08T08:24:42.220Z,25.50
2018-07-08T08:27:13.605Z,24.83
2018-07-08T08:29:44.338Z,25.77
2018-07-08T08:32:18.917Z,26.00
2018-07-08T08:35:09.251Z,25.72
2018-07-08T08:37:43.472Z,24.77
2018-07-08T08:40:16.095Z,25.32
2018-07-08T08:42:46.807Z,25.03
2018-07-08T08:45:19.413Z,25.31
2018-07-08T08:47:51.133Z,26.29
2018-07-08T08:50:22.175Z,26.24
2018-07-08T08:52:52.751Z,25.84
2018-07-08T08:55:25.541Z,25.57
2018-07-08T08:58:03.629Z,26.10
2018-07-08T09:00:35.211Z,26.60
2018-07-08T09:03:06.285Z,26.80
2018-07-08T09:05:37.697Z,27.62
2018-07-08T09:08:08.923Z,28.24
2018-07-08T09:10:40.710Z,28.97
2018-07-08T09:13:16.237Z,28.56
2018-07-08T09:15:47.863Z,29.01
2018-07-08T09:18:19.274Z,29.19
2018-07-08T09:20:49.903Z,29.65
2018-07-08T09:23:21.638Z,28.82
2018-07-08T09:25:52.333Z,29.72
2018-07-08T09:28:23.681Z,30.09
2018-07-08T09:30:54.203Z,29.68
2018-07-08T09:33:25.630Z,29.55
2018-07-08T09:35:56.578Z,29.99
2018-07-08T09:38:26.892Z,30.44
2018-07-08T09:40:58.086Z,29.95
2018-07-08T09:43:29.405Z,29.20
2018-07-08T09:45:59.839Z,29.60
2018-07-08T09:48:30.876Z,30.67
2018-07-08T09:51:03.600Z,31.84
2018-07-08T09:53:35.253Z,30.10
2018-07-08T09:56:05.642Z,29.34
2018-07-08T09:58:36.213Z,30.32
2018-07-08T10:01:06.965Z,30.62
2018-07-08T10:03:37.553Z,30.77
2018-07-08T10:06:08.241Z,31.82
2018-07-08T10:08:39.543Z,31.37
2018-07-08T10:11:10.731Z,31.62
2018-07-08T10:13:41.698Z,31.25
2018-07-08T10:16:12.374Z,31.60
2018-07-08T10:18:42.755Z,31.30
2018-07-08T10:21:13.730Z,32.38
2018-07-08T10:23:44.164Z,30.96
2018-07-08T10:26:16.307Z,31.78
2018-07-08T10:28:47.378Z,32.05
2018-07-08T10:31:18.093Z,30.46
2018-07-08T10:33:56.800Z,30.98
2018-07-08T10:36:28.600Z,33.04
2018-07-08T10:38:59.152Z,32.63
2018-07-08T10:41:30.226Z,32.28
2018-07-08T10:44:02.892Z,33.84
2018-07-08T10:46:33.158Z,34.02
2018-07-08T10:49:05.742Z,33.18
2018-07-08T10:51:36.780Z,34.51
2018-07-08T10:54:08.560Z,33.86
2018-07-08T10:56:39.875Z,33.36
2018-07-08T10:59:10.515Z,33.78
2018-07-08T11:01:41.966Z,34.17
2018-07-08T11:04:12.912Z,32.70
2018-07-08T11:06:45.539Z,31.07
2018-07-08T11:09:16.140Z,30.97
2018-07-08T11:11:46.697Z,32.81
2018-07-08T11:14:17.476Z,34.98
2018-07-08T11:16:49.094Z,36.20
2018-07-08T11:19:20.293Z,35.40
2018-07-08T11:21:51.430Z,36.54
2018-07-08T11:24:22.022Z,36.51
2018-07-08T11:26:53.368Z,36.63
2018-07-08T11:29:25.113Z,37.81
2018-07-08T11:31:56.429Z,38.27
2018-07-08T11:34:27.125Z,37.32
2018-07-08T11:36:57.537Z,37.38
2018-07-08T11:39:29.097Z,38.68
2018-07-08T11:42:00.373Z,36.32
2018-07-08T11:44:32.439Z,36.05
2018-07-08T11:47:03.344Z,36.26
2018-07-08T11:49:34.485Z,36.06
2018-07-08T11:52:06.016Z,36.94
2018-07-08T11:54:36.495Z,38.38
2018-07-08T11:57:07.652Z,37.22
2018-07-08T11:59:38.557Z,39.56
2018-07-08T12:02:10.084Z,40.45
2018-07-08T12:04:41.601Z,40.27
2018-07-08T12:07:12.167Z,39.96
2018-07-08T12:09:44.147Z,39.62
2018-07-08T12:12:15.034Z,37.67
2018-07-08T12:14:45.469Z,39.06
2018-07-08T12:17:16.518Z,39.30
2018-07-08T12:19:48.001Z,39.79
2018-07-08T12:22:19.516Z,40.46
2018-07-08T12:24:50.481Z,40.97
2018-07-08T12:27:21.428Z,38.65
2018-07-08T12:29:52.004Z,40.83
2018-07-08T12:32:22.833Z,39.63
2018-07-08T12:34:54.097Z,40.52
2018-07-08T12:37:25.869Z,40.91
2018-07-08T12:39:56.699Z,39.54
2018-07-08T12:42:27.723Z,40.72
2018-07-08T12:44:59.137Z,39.59
2018-07-08T12:47:30.126Z,38.11
2018-07-08T12:50:07.211Z,38.58
2018-07-08T12:52:38.248Z,39.91
2018-07-08T12:55:09.816Z,41.04
2018-07-08T12:57:41.063Z,40.23
2018-07-08T13:00:11.404Z,41.73
2018-07-08T13:02:41.768Z,40.46
2018-07-08T13:05:13.126Z,40.69
2018-07-08T13:07:45.090Z,41.14
2018-07-08T13:10:15.551Z,41.76
2018-07-08T13:12:46.906Z,41.75
2018-07-08T13:15:18.091Z,41.71
2018-07-08T13:17:49.650Z,41.71
2018-07-08T13:20:20.924Z,39.51
2018-07-08T13:22:52.116Z,39.62
2018-07-08T13:25:22.501Z,40.68
2018-07-08T13:27:54.240Z,41.43
2018-07-08T13:30:27.596Z,41.01
2018-07-08T13:32:58.538Z,40.46
2018-07-08T13:35:29.525Z,39.70
2018-07-08T13:38:00.365Z,40.75
2018-07-08T13:40:33.228Z,40.81
2018-07-08T13:43:04.307Z,41.23
2018-07-08T13:45:38.172Z,42.26
2018-07-08T13:48:09.856Z,42.39
2018-07-08T13:50:41.986Z,39.35
2018-07-08T13:53:13.317Z,39.72
2018-07-08T13:55:46.171Z,41.69
2018-07-08T13:58:17.726Z,42.19
2018-07-08T14:00:48.584Z,41.47
2018-07-08T14:03:19.646Z,42.40
2018-07-08T14:05:50.309Z,41.88
2018-07-08T14:08:21.789Z,42.41
2018-07-08T14:10:52.374Z,43.56
2018-07-08T14:13:23.539Z,44.31
2018-07-08T14:15:55.104Z,43.19
2018-07-08T14:18:27.396Z,40.55
2018-07-08T14:20:58.730Z,42.28
2018-07-08T14:23:30.663Z,40.50
2018-07-08T14:26:01.320Z,38.22
2018-07-08T14:28:33.430Z,37.57
2018-07-08T14:31:04.715Z,37.75
2018-07-08T14:33:35.638Z,35.86
2018-07-08T14:36:06.546Z,36.59
2018-07-08T14:38:37.160Z,39.39
2018-07-08T14:41:07.476Z,40.45
2018-07-08T14:43:40.130Z,42.52
2018-07-08T14:46:11.244Z,41.79
2018-07-08T14:48:43.529Z,40.83
2018-07-08T14:51:14.422Z,41.89
2018-07-08T14:53:45.022Z,42.64
2018-07-08T14:56:16.382Z,38.68
2018-07-08T14:58:47.630Z,40.70
2018-07-08T15:01:19.093Z,36.21
2018-07-08T15:03:50.326Z,37.65
2018-07-08T15:06:21.442Z,40.04
2018-07-08T15:08:52.837Z,41.26
2018-07-08T15:11:24.227Z,40.02
2018-07-08T15:13:54.823Z,38.35
2018-07-08T15:16:26.799Z,38.17
2018-07-08T15:18:57.655Z,37.21
2018-07-08T15:21:29.206Z,37.47
2018-07-08T15:24:00.914Z,37.88
2018-07-08T15:26:31.551Z,40.65
2018-07-08T15:29:03.302Z,40.90
2018-07-08T15:31:34.531Z,41.21
2018-07-08T15:34:04.928Z,41.65
2018-07-08T15:36:36.000Z,42.21
2018-07-08T15:39:07.968Z,41.01
2018-07-08T15:41:38.590Z,42.56
2018-07-08T15:44:09.401Z,38.25
2018-07-08T15:46:40.900Z,35.75
2018-07-08T15:49:12.679Z,37.61
2018-07-08T15:51:45.471Z,36.33
2018-07-08T15:54:17.140Z,35.71
2018-07-08T15:56:48.928Z,36.92
2018-07-08T15:59:20.261Z,37.98
2018-07-08T16:01:51.348Z,38.82
2018-07-08T16:04:24.438Z,38.71
2018-07-08T16:06:55.546Z,38.39
2018-07-08T16:09:25.736Z,39.01
2018-07-08T16:11:56.453Z,38.86
2018-07-08T16:14:27.159Z,39.02
2018-07-08T16:16:58.835Z,40.16
2018-07-08T16:19:29.954Z,40.45
2018-07-08T16:22:02.056Z,39.03
2018-07-08T16:24:34.008Z,38.14
2018-07-08T16:27:06.172Z,38.66
2018-07-08T16:29:37.688Z,38.35
2018-07-08T16:32:09.114Z,38.68
2018-07-08T16:34:39.716Z,38.56
2018-07-08T16:37:10.541Z,38.92
2018-07-08T16:39:42.887Z,39.83
2018-07-08T16:42:15.667Z,39.00
2018-07-08T16:44:48.351Z,39.90
2018-07-08T16:47:18.815Z,38.58
2018-07-08T16:49:51.421Z,39.18
2018-07-08T16:52:22.831Z,39.02
2018-07-08T16:54:54.379Z,38.78
2018-07-08T16:57:26.108Z,38.37
2018-07-08T16:59:57.301Z,37.41
2018-07-08T17:02:32.209Z,37.19
2018-07-08T17:05:03.874Z,36.42
2018-07-08T17:07:34.393Z,33.46
2018-07-08T17:10:05.703Z,30.96
2018-07-08T17:12:36.611Z,29.60
2018-07-08T17:15:09.003Z,28.97
2018-07-08T17:17:39.703Z,28.61
2018-07-08T17:20:11.238Z,28.62
2018-07-08T17:22:44.135Z,29.08
2018-07-08T17:25:16.418Z,28.65
2018-07-08T17:27:48.328Z,28.30
2018-07-08T17:30:29.075Z,27.81
2018-07-08T17:33:03.441Z,27.61
2018-07-08T17:35:37.387Z,27.61
2018-07-08T17:38:09.352Z,27.70
2018-07-08T17:40:42.148Z,27.57
2018-07-08T17:43:13.025Z,27.43
2018-07-08T17:45:49.880Z,27.39
2018-07-08T17:48:34.245Z,27.48
2018-07-08T17:51:17.185Z,27.51
2018-07-08T17:53:50.015Z,27.55
2018-07-08T17:56:21.018Z,27.44
2018-07-08T17:58:52.376Z,27.44
2018-07-08T18:01:24.012Z,27.22
2018-07-08T18:03:58.282Z,27.13
2018-07-08T18:06:30.302Z,27.06
2018-07-08T18:09:03.315Z,27.05
2018-07-08T18:11:35.242Z,26.98
2018-07-08T18:14:07.010Z,26.92
2018-07-08T18:16:38.194Z,26.80
2018-07-08T18:19:09.930Z,26.79
2018-07-08T18:21:41.140Z,26.75
2018-07-08T18:24:12.332Z,26.78
2018-07-08T18:26:43.962Z,26.36
2018-07-08T18:29:14.894Z,26.12
2018-07-08T18:31:45.228Z,25.93
2018-07-08T18:34:16.020Z,25.77
2018-07-08T18:36:46.584Z,25.66
2018-07-08T18:39:17.429Z,25.52
2018-07-08T18:41:49.375Z,25.35
2018-07-08T18:44:20.733Z,25.27
2018-07-08T18:46:52.978Z,25.15
2018-07-08T18:49:23.288Z,25.09
2018-07-08T18:51:54.040Z,24.99
2018-07-08T18:54:25.304Z,24.93
2018-07-08T18:56:56.530Z,24.93
2018-07-08T18:59:27.146Z,24.92
2018-07-08T19:01:57.872Z,24.89
2018-07-08T19:04:29.398Z,24.83
2018-07-08T19:07:00.271Z,24.72
2018-07-08T19:09:31.292Z,24.54
2018-07-08T19:12:03.902Z,24.36
2018-07-08T19:14:36.039Z,24.27
2018-07-08T19:17:07.372Z,24.12
2018-07-08T19:19:38.115Z,24.04
2018-07-08T19:22:09.174Z,23.95
2018-07-08T19:24:40.154Z,23.92
2018-07-08T19:27:11.441Z,23.89
2018-07-08T19:29:43.361Z,23.85
2018-07-08T19:32:14.477Z,23.75
2018-07-08T19:34:45.125Z,23.69
2018-07-08T19:37:17.287Z,23.59
2018-07-08T19:39:48.645Z,23.43
2018-07-08T19:42:19.676Z,23.46
2018-07-08T19:44:50.431Z,23.40
2018-07-08T19:47:22.045Z,23.25
2018-07-08T19:49:52.587Z,23.15
2018-07-08T19:52:24.621Z,23.07
2018-07-08T19:54:54.799Z,23.01
2018-07-08T19:57:27.170Z,22.89
2018-07-08T19:59:57.518Z,22.81
2018-07-08T20:02:29.223Z,22.82
2018-07-08T20:05:01.338Z,22.62
2018-07-08T20:07:33.138Z,22.55
2018-07-08T20:10:05.128Z,22.46
2018-07-08T20:12:35.406Z,22.35
2018-07-08T20:15:06.569Z,22.12
2018-07-08T20:17:37.638Z,22.17
2018-07-08T20:20:09.543Z,22.02
2018-07-08T20:22:40.202Z,21.90
2018-07-08T20:25:11.615Z,21.75
2018-07-08T20:27:43.595Z,21.80
2018-07-08T20:30:14.829Z,21.83
2018-07-08T20:32:45.547Z,21.89
2018-07-08T20:35:17.966Z,22.07
2018-07-08T20:37:48.655Z,22.20
2018-07-08T20:40:19.216Z,22.18
2018-07-08T20:42:49.835Z,22.30
2018-07-08T20:45:21.289Z,22.38
2018-07-08T20:47:52.390Z,22.46
2018-07-08T20:50:24.510Z,22.49
2018-07-08T20:52:56.405Z,22.37
2018-07-08T20:55:26.976Z,22.38
2018-07-08T20:57:58.148Z,22.29
2018-07-08T21:00:28.605Z,22.19
2018-07-08T21:02:59.011Z,22.02
2018-07-08T21:05:29.377Z,21.88
2018-07-08T21:08:00.203Z,21.73
2018-07-08T21:10:31.388Z,21.59
2018-07-08T21:13:03.129Z,21.50
2018-07-08T21:15:33.571Z,21.35
2018-07-08T21:18:04.382Z,21.34
2018-07-08T21:20:35.643Z,21.26
2018-07-08T21:23:06.442Z,21.13
2018-07-08T21:25:37.698Z,20.99
2018-07-08T21:28:08.496Z,20.93
2018-07-08T21:30:39.974Z,20.94
2018-07-08T21:33:11.123Z,20.91
2018-07-08T21:35:41.843Z,20.75
2018-07-08T21:38:13.798Z,20.88
2018-07-08T21:40:47.762Z,20.84
2018-07-08T21:43:19.634Z,21.00
2018-07-08T21:45:50.249Z,21.10
2018-07-08T21:48:21.209Z,21.16
2018-07-08T21:50:51.905Z,21.07
2018-07-08T21:53:22.623Z,21.08
2018-07-08T21:55:54.189Z,21.05
2018-07-08T21:58:25.579Z,20.90
2018-07-08T22:01:15.632Z,20.88
2018-07-08T22:03:50.064Z,20.76
2018-07-08T22:06:21.992Z,20.74
2018-07-08T22:08:53.835Z,20.87
2018-07-08T22:11:24.934Z,20.90
2018-07-08T22:13:56.072Z,20.89
2018-07-08T22:16:27.188Z,20.78
2018-07-08T22:18:59.030Z,20.74
2018-07-08T22:21:29.850Z,20.79
2018-07-08T22:24:01.930Z,20.75
2018-07-08T22:26:33.207Z,20.69
2018-07-08T22:29:07.007Z,20.73
2018-07-08T22:31:41.130Z,20.89
2018-07-08T22:34:13.199Z,20.73
2018-07-08T22:36:45.271Z,20.58
2018-07-08T22:39:16.076Z,20.59
2018-07-08T22:41:46.666Z,20.49
2018-07-08T22:44:17.132Z,20.25
2018-07-08T22:46:48.200Z,20.10
2018-07-08T22:49:23.111Z,19.93
2018-07-08T22:51:57.645Z,19.80
2018-07-08T22:54:29.213Z,19.68
2018-07-08T22:56:59.752Z,19.51
2018-07-08T22:59:31.212Z,19.36
2018-07-08T23:02:12.589Z,19.31
2018-07-08T23:04:47.796Z,19.14
2018-07-08T23:07:18.444Z,19.06
2018-07-08T23:09:49.339Z,19.18
2018-07-08T23:12:19.715Z,18.99
2018-07-08T23:14:50.980Z,18.93
2018-07-08T23:17:22.177Z,18.89
2018-07-08T23:19:53.730Z,18.83
2018-07-08T23:22:33.967Z,18.74
2018-07-08T23:25:06.128Z,18.74
2018-07-08T23:27:37.079Z,18.82
2018-07-08T23:30:08.057Z,18.70
2018-07-08T23:32:39.579Z,18.66
2018-07-08T23:35:10.261Z,18.55
2018-07-08T23:37:40.555Z,18.55
2018-07-08T23:40:11.151Z,18.60
2018-07-08T23:42:42.461Z,18.57
2018-07-08T23:45:18.321Z,18.54
2018-07-08T23:47:49.973Z,18.23
2018-07-08T23:50:20.870Z,18.11
2018-07-08T23:52:51.505Z,17.87
2018-07-08T23:55:22.057Z,17.73
2018-07-08T23:57:52.864Z,17.52
